createdAt,value
2023-01-19T00:01:50.487Z,99794.29
2023-01-19T00:04:21.331Z,99800.34
2023-01-19T00:06:52.051Z,99801.61
2023-01-19T00:09:23.295Z,99810.92
2023-01-19T00:11:54.569Z,99814.20
2023-01-19T00:14:25.365Z,99818.41
2023-01-19T00:16:56.056Z,99821.32
2023-01-19T00:19:26.754Z,99826.56
2023-01-19T00:21:57.483Z,99829.23
2023-01-19T00:24:28.210Z,99824.83
2023-01-19T00:26:59.513Z,99823.73
2023-01-19T00:29:33.529Z,99825.14
2023-01-19T00:32:04.961Z,99826.37
2023-01-19T00:34:39.772Z,99824.20
2023-01-19T00:37:10.586Z,99821.38
2023-01-19T00:39:41.341Z,99825.70
2023-01-19T00:42:30.114Z,99825.83
2023-01-19T00:45:00.838Z,99823.40
2023-01-19T00:47:32.429Z,99824.27
2023-01-19T00:50:03.137Z,99824.98
2023-01-19T00:52:33.982Z,99821.34
2023-01-19T00:55:04.905Z,99811.88
2023-01-19T00:57:35.616Z,99812.45
2023-01-19T01:00:07.596Z,99809.61
2023-01-19T01:02:38.501Z,99808.60
2023-01-19T01:05:09.895Z,99807.67
2023-01-19T01:07:40.886Z,99800.77
2023-01-19T01:10:12.530Z,99798.10
2023-01-19T01:12:56.083Z,99791.63
2023-01-19T01:15:30.035Z,99790.81
2023-01-19T01:18:00.812Z,99788.08
2023-01-19T01:20:33.777Z,99789.04
2023-01-19T01:23:04.755Z,99792.27
2023-01-19T01:25:37.850Z,99793.34
2023-01-19T01:28:08.915Z,99795.48
2023-01-19T01:30:41.143Z,99795.00
2023-01-19T01:33:13.529Z,99793.20
2023-01-19T01:35:44.225Z,99790.00
2023-01-19T01:38:14.969Z,99792.77
2023-01-19T01:40:45.648Z,99791.05
2023-01-19T01:43:18.016Z,99784.31
2023-01-19T01:45:48.927Z,99785.96
2023-01-19T01:48:22.446Z,99781.13
2023-01-19T01:51:11.254Z,99783.06
2023-01-19T01:53:42.041Z,99782.58
2023-01-19T01:56:13.455Z,99783.27
2023-01-19T01:58:44.282Z,99781.38
2023-01-19T02:01:32.611Z,99782.36
2023-01-19T02:04:03.384Z,99776.49
2023-01-19T02:06:34.045Z,99777.40
2023-01-19T02:09:23.000Z,99771.61
2023-01-19T02:12:11.452Z,99761.20
2023-01-19T02:14:42.225Z,99757.00
2023-01-19T02:17:13.421Z,99759.63
2023-01-19T02:19:44.338Z,99761.33
2023-01-19T02:22:16.341Z,99761.57
2023-01-19T02:24:47.153Z,99756.92
2023-01-19T02:27:18.013Z,99758.09
2023-01-19T02:29:48.741Z,99758.85
2023-01-19T02:32:19.429Z,99756.40
2023-01-19T02:34:50.295Z,99751.90
2023-01-19T02:37:21.006Z,99755.77
2023-01-19T02:39:52.044Z,99760.73
2023-01-19T02:42:23.822Z,99770.11
2023-01-19T02:44:54.842Z,99762.09
2023-01-19T02:47:25.629Z,99758.66
2023-01-19T02:49:59.826Z,99760.76
2023-01-19T02:52:30.628Z,99767.84
2023-01-19T02:55:04.115Z,99764.09
2023-01-19T02:57:54.092Z,99761.48
2023-01-19T03:00:26.845Z,99761.65
2023-01-19T03:03:01.949Z,99762.52
2023-01-19T03:05:34.928Z,99757.38
2023-01-19T03:08:08.487Z,99755.24
2023-01-19T03:10:42.333Z,99751.69
2023-01-19T03:13:14.621Z,99748.88
2023-01-19T03:15:46.890Z,99749.70
2023-01-19T03:18:18.567Z,99748.64
2023-01-19T03:20:49.559Z,99755.45
2023-01-19T03:23:20.384Z,99754.23
2023-01-19T03:25:51.381Z,99756.41
2023-01-19T03:28:22.182Z,99759.75
2023-01-19T03:30:54.307Z,99763.26
2023-01-19T03:33:27.642Z,99771.56
2023-01-19T03:36:03.900Z,99771.56
2023-01-19T03:38:35.356Z,99767.45
2023-01-19T03:41:06.766Z,99771.27
2023-01-19T03:43:37.666Z,99780.14
2023-01-19T03:46:08.585Z,99786.09
2023-01-19T03:48:39.461Z,99783.39
2023-01-19T03:51:10.582Z,99788.02
2023-01-19T03:53:41.439Z,99787.55
2023-01-19T03:56:14.007Z,99790.11
2023-01-19T03:58:44.712Z,99785.52
2023-01-19T04:01:16.262Z,99790.35
2023-01-19T04:03:47.434Z,99781.71
2023-01-19T04:06:18.559Z,99790.86
2023-01-19T04:08:50.389Z,99788.76
2023-01-19T04:11:21.280Z,99784.87
2023-01-19T04:13:52.077Z,99786.75
2023-01-19T04:16:23.760Z,99789.23
2023-01-19T04:18:54.623Z,99796.28
2023-01-19T04:21:25.569Z,99800.56
2023-01-19T04:23:56.259Z,99803.86
2023-01-19T04:26:27.532Z,99804.15
2023-01-19T04:28:58.250Z,99798.46
2023-01-19T04:31:29.288Z,99799.71
2023-01-19T04:33:59.913Z,99793.13
2023-01-19T04:36:31.153Z,99792.84
2023-01-19T04:39:02.010Z,99792.89
2023-01-19T04:41:32.970Z,99786.55
2023-01-19T04:44:03.660Z,99792.30
2023-01-19T04:46:35.215Z,99792.61
2023-01-19T04:49:06.267Z,99791.98
2023-01-19T04:51:37.301Z,99804.50
2023-01-19T04:54:09.122Z,99801.66
2023-01-19T04:56:41.034Z,99807.08
2023-01-19T04:59:11.931Z,99810.61
2023-01-19T05:01:42.892Z,99811.44
2023-01-19T05:04:13.779Z,99811.34
2023-01-19T05:06:44.525Z,99808.08
2023-01-19T05:09:15.718Z,99804.47
2023-01-19T05:11:46.645Z,99803.92
2023-01-19T05:14:17.518Z,99810.91
2023-01-19T05:16:48.469Z,99809.98
2023-01-19T05:19:19.250Z,99810.89
2023-01-19T05:21:50.049Z,99820.23
2023-01-19T05:24:20.890Z,99822.69
2023-01-19T05:26:52.045Z,99816.88
2023-01-19T05:29:22.651Z,99821.50
2023-01-19T05:31:53.684Z,99821.21
2023-01-19T05:34:24.613Z,99829.52
2023-01-19T05:36:55.474Z,99840.39
2023-01-19T05:39:27.237Z,99836.89
2023-01-19T05:41:58.208Z,99832.98
2023-01-19T05:44:28.957Z,99833.29
2023-01-19T05:46:59.868Z,99851.40
2023-01-19T05:49:30.616Z,99861.45
2023-01-19T05:52:01.434Z,99863.79
2023-01-19T05:54:32.202Z,99876.31
2023-01-19T05:57:03.339Z,99874.83
2023-01-19T05:59:37.503Z,99875.80
2023-01-19T06:02:09.031Z,99870.96
2023-01-19T06:04:41.314Z,99875.75
2023-01-19T06:07:12.019Z,99878.89
2023-01-19T06:09:42.693Z,99878.94
2023-01-19T06:12:13.558Z,99886.87
2023-01-19T06:14:44.624Z,99885.78
2023-01-19T06:17:15.693Z,99889.08
2023-01-19T06:19:46.549Z,99885.06
2023-01-19T06:22:17.261Z,99886.13
2023-01-19T06:24:48.043Z,99887.73
2023-01-19T06:27:19.861Z,99890.91
2023-01-19T06:29:50.746Z,99892.03
2023-01-19T06:32:21.786Z,99898.48
2023-01-19T06:34:54.091Z,99895.45
2023-01-19T06:37:27.385Z,99889.88
2023-01-19T06:39:58.107Z,99893.06
2023-01-19T06:42:28.958Z,99894.58
2023-01-19T06:44:59.861Z,99899.69
2023-01-19T06:47:31.210Z,99897.95
2023-01-19T06:50:02.505Z,99898.49
2023-01-19T06:52:33.646Z,99905.00
2023-01-19T06:55:04.586Z,99910.50
2023-01-19T06:57:35.296Z,99908.07
2023-01-19T07:00:08.219Z,99899.91
2023-01-19T07:02:39.487Z,99901.03
2023-01-19T07:05:10.868Z,99902.83
2023-01-19T07:07:43.357Z,99899.83
2023-01-19T07:10:15.878Z,99900.04
2023-01-19T07:12:47.845Z,99902.54
2023-01-19T07:15:19.654Z,99897.84
2023-01-19T07:17:50.748Z,99890.35
2023-01-19T07:20:21.513Z,99886.75
2023-01-19T07:22:56.030Z,99883.14
2023-01-19T07:25:27.069Z,99883.14
2023-01-19T07:28:00.094Z,99881.67
2023-01-19T07:30:30.927Z,99882.08
2023-01-19T07:33:03.363Z,99878.07
2023-01-19T07:35:35.341Z,99879.27
2023-01-19T07:38:06.327Z,99880.17
2023-01-19T07:40:37.125Z,99884.73
2023-01-19T07:43:08.077Z,99882.94
2023-01-19T07:45:39.414Z,99882.20
2023-01-19T07:48:10.378Z,99881.51
2023-01-19T07:50:41.064Z,99872.86
2023-01-19T07:53:15.088Z,99876.81
2023-01-19T07:55:45.933Z,99876.67
2023-01-19T07:58:17.146Z,99877.38
2023-01-19T08:00:47.868Z,99878.44
2023-01-19T08:03:19.083Z,99876.55
2023-01-19T08:05:52.439Z,99878.72
2023-01-19T08:08:23.481Z,99882.92
2023-01-19T08:10:54.665Z,99882.55
2023-01-19T08:13:25.585Z,99888.50
2023-01-19T08:15:56.458Z,99887.09
2023-01-19T08:18:27.728Z,99886.00
2023-01-19T08:20:58.481Z,99888.88
2023-01-19T08:23:30.173Z,99894.89
2023-01-19T08:26:00.828Z,99898.20
2023-01-19T08:28:31.728Z,99893.59
2023-01-19T08:31:18.213Z,99897.27
2023-01-19T08:33:50.442Z,99899.48
2023-01-19T08:36:21.455Z,99906.17
2023-01-19T08:38:52.624Z,99899.98
2023-01-19T08:41:23.522Z,99903.67
2023-01-19T08:43:54.437Z,99907.73
2023-01-19T08:46:25.408Z,99908.14
2023-01-19T08:48:57.183Z,99902.16
2023-01-19T08:51:28.013Z,99906.80
2023-01-19T08:54:00.198Z,99905.48
2023-01-19T08:56:31.744Z,99903.73
2023-01-19T08:59:09.888Z,99902.79
2023-01-19T09:01:41.710Z,99896.02
2023-01-19T09:04:13.110Z,99894.82
2023-01-19T09:06:43.916Z,99891.52
2023-01-19T09:09:14.770Z,99892.64
2023-01-19T09:11:46.493Z,99893.54
2023-01-19T09:14:17.445Z,99894.96
2023-01-19T09:16:48.281Z,99892.19
2023-01-19T09:19:19.079Z,99893.23
2023-01-19T09:21:50.892Z,99890.30
2023-01-19T09:24:22.125Z,99874.27
2023-01-19T09:26:56.561Z,99871.86
2023-01-19T09:29:27.531Z,99869.35
2023-01-19T09:31:58.804Z,99874.71
2023-01-19T09:34:29.878Z,99875.51
2023-01-19T09:37:00.727Z,99856.39
2023-01-19T09:39:31.568Z,99856.66
2023-01-19T09:42:02.958Z,99846.39
2023-01-19T09:44:35.120Z,99837.80
2023-01-19T09:47:14.433Z,99845.98
2023-01-19T09:49:45.845Z,99845.73
2023-01-19T09:52:16.752Z,99831.73
2023-01-19T09:54:48.296Z,99833.63
2023-01-19T09:57:19.053Z,99832.83
2023-01-19T09:59:51.686Z,99823.08
2023-01-19T10:02:26.793Z,99825.31
2023-01-19T10:05:00.781Z,99819.50
2023-01-19T10:07:45.412Z,99814.65
2023-01-19T10:10:19.540Z,99811.19
2023-01-19T10:13:05.168Z,99805.63
2023-01-19T10:15:39.543Z,99809.40
2023-01-19T10:18:18.174Z,99810.02
2023-01-19T10:20:50.664Z,99808.86
2023-01-19T10:23:26.814Z,99803.73
2023-01-19T10:25:57.783Z,99799.61
2023-01-19T10:28:29.477Z,99798.27
2023-01-19T10:31:00.507Z,99799.32
2023-01-19T10:33:31.840Z,99796.64
2023-01-19T10:36:02.716Z,99788.89
2023-01-19T10:38:34.091Z,99789.23
2023-01-19T10:41:06.789Z,99783.62
2023-01-19T10:43:38.694Z,99788.58
2023-01-19T10:46:09.940Z,99776.21
2023-01-19T10:48:42.263Z,99777.71
2023-01-19T10:51:13.486Z,99778.02
2023-01-19T10:53:46.369Z,99779.40
2023-01-19T10:56:24.126Z,99777.94
2023-01-19T10:58:55.120Z,99768.56
2023-01-19T11:01:26.624Z,99760.61
2023-01-19T11:04:05.666Z,99762.05
2023-01-19T11:06:36.664Z,99762.30
2023-01-19T11:09:16.799Z,99764.27
2023-01-19T11:11:48.947Z,99761.38
2023-01-19T11:14:23.653Z,99750.55
2023-01-19T11:16:55.394Z,99771.45
2023-01-19T11:19:29.595Z,99764.33
2023-01-19T11:22:21.929Z,99768.85
2023-01-19T11:24:52.972Z,99768.54
2023-01-19T11:27:24.073Z,99768.42
2023-01-19T11:29:58.993Z,99769.92
2023-01-19T11:32:30.391Z,99760.95
2023-01-19T11:35:01.354Z,99764.10
2023-01-19T11:37:35.272Z,99768.01
2023-01-19T11:40:06.881Z,99771.58
2023-01-19T11:42:38.969Z,99764.52
2023-01-19T11:45:13.881Z,99766.13
2023-01-19T11:47:45.751Z,99765.29
2023-01-19T11:50:28.971Z,99762.23
2023-01-19T11:53:00.953Z,99763.26
2023-01-19T11:55:32.790Z,99763.77
2023-01-19T11:58:04.194Z,99758.94
2023-01-19T12:00:36.257Z,99759.90
2023-01-19T12:03:08.536Z,99766.02
2023-01-19T12:05:40.576Z,99761.02
2023-01-19T12:08:13.452Z,99756.53
2023-01-19T12:10:45.064Z,99750.73
2023-01-19T12:13:19.448Z,99750.78
2023-01-19T12:15:51.527Z,99748.66
2023-01-19T12:18:23.136Z,99746.99
2023-01-19T12:20:54.841Z,99750.90
2023-01-19T12:23:33.249Z,99738.05
2023-01-19T12:26:06.424Z,99740.51
2023-01-19T12:28:39.129Z,99744.45
2023-01-19T12:31:10.057Z,99746.95
2023-01-19T12:33:41.653Z,99748.02
2023-01-19T12:36:14.343Z,99755.16
2023-01-19T12:38:54.541Z,99750.20
2023-01-19T12:41:29.605Z,99747.48
2023-01-19T12:44:21.261Z,99763.14
2023-01-19T12:46:55.365Z,99761.13
2023-01-19T12:49:28.646Z,99767.88
2023-01-19T12:52:13.015Z,99763.77
2023-01-19T12:54:45.574Z,99758.52
2023-01-19T12:57:19.274Z,99762.21
2023-01-19T12:59:50.230Z,99757.11
2023-01-19T13:02:38.551Z,99762.87
2023-01-19T13:05:20.641Z,99763.92
2023-01-19T13:08:09.574Z,99764.03
2023-01-19T13:10:57.732Z,99763.02
2023-01-19T13:13:29.237Z,99767.23
2023-01-19T13:16:00.799Z,99768.13
2023-01-19T13:18:32.332Z,99773.59
2023-01-19T13:21:03.693Z,99770.16
2023-01-19T13:23:54.284Z,99773.98
2023-01-19T13:26:25.679Z,99778.79
2023-01-19T13:28:57.412Z,99779.80
2023-01-19T13:31:28.311Z,99774.50
2023-01-19T13:34:00.628Z,99779.64
2023-01-19T13:36:32.719Z,99776.16
2023-01-19T13:39:03.941Z,99777.55
2023-01-19T13:41:37.148Z,99783.04
2023-01-19T13:44:08.935Z,99776.89
2023-01-19T13:46:41.042Z,99776.83
2023-01-19T13:49:16.324Z,99776.19
2023-01-19T13:51:48.871Z,99775.10
2023-01-19T13:54:21.502Z,99773.06
2023-01-19T13:56:52.492Z,99773.32
2023-01-19T13:59:23.348Z,99773.08
2023-01-19T14:01:55.468Z,99772.66
2023-01-19T14:04:32.453Z,99771.30
2023-01-19T14:07:03.930Z,99769.58
2023-01-19T14:09:34.810Z,99776.21
2023-01-19T14:12:10.582Z,99773.13
2023-01-19T14:14:41.622Z,99778.84
2023-01-19T14:17:32.525Z,99774.23
2023-01-19T14:20:08.711Z,99778.82
2023-01-19T14:22:40.620Z,99774.41
2023-01-19T14:25:26.549Z,99779.98
2023-01-19T14:28:15.526Z,99773.77
2023-01-19T14:30:56.690Z,99768.16
2023-01-19T14:33:41.890Z,99771.70
2023-01-19T14:36:17.956Z,99767.09
2023-01-19T14:38:50.012Z,99765.98
2023-01-19T14:41:24.628Z,99764.61
2023-01-19T14:43:56.327Z,99762.48
2023-01-19T14:46:28.324Z,99757.81
2023-01-19T14:49:02.188Z,99753.93
2023-01-19T14:51:33.361Z,99747.67
2023-01-19T14:54:05.219Z,99751.84
2023-01-19T14:56:36.902Z,99754.45
2023-01-19T14:59:09.895Z,99756.98
2023-01-19T15:01:41.666Z,99761.11
2023-01-19T15:04:13.419Z,99758.56
2023-01-19T15:06:46.090Z,99762.73
2023-01-19T15:09:17.007Z,99765.44
2023-01-19T15:11:47.951Z,99766.68
2023-01-19T15:14:20.298Z,99765.16
2023-01-19T15:16:51.117Z,99762.20
2023-01-19T15:19:22.377Z,99763.30
2023-01-19T15:21:53.106Z,99766.48
2023-01-19T15:24:24.173Z,99769.98
2023-01-19T15:26:54.949Z,99768.10
2023-01-19T15:29:26.401Z,99772.21
2023-01-19T15:31:57.151Z,99772.68
2023-01-19T15:34:29.341Z,99779.57
2023-01-19T15:37:00.111Z,99779.71
2023-01-19T15:39:33.378Z,99780.87
2023-01-19T15:42:04.222Z,99780.85
2023-01-19T15:44:35.113Z,99785.16
2023-01-19T15:47:08.721Z,99785.91
2023-01-19T15:49:39.561Z,99786.08
2023-01-19T15:52:10.669Z,99788.25
2023-01-19T15:54:41.560Z,99796.39
2023-01-19T15:57:12.407Z,99798.34
2023-01-19T16:00:06.665Z,99799.37
2023-01-19T16:02:37.252Z,99800.77
2023-01-19T16:05:09.243Z,99805.58
2023-01-19T16:07:41.061Z,99803.98
2023-01-19T16:10:13.118Z,99802.98
2023-01-19T16:12:44.067Z,99807.86
2023-01-19T16:15:15.130Z,99808.21
2023-01-19T16:17:46.011Z,99811.20
2023-01-19T16:20:18.575Z,99811.27
2023-01-19T16:22:49.336Z,99810.27
2023-01-19T16:25:21.024Z,99810.34
2023-01-19T16:27:51.932Z,99810.45
2023-01-19T16:30:26.088Z,99816.13
2023-01-19T16:32:57.045Z,99818.30
2023-01-19T16:35:29.028Z,99822.90
2023-01-19T16:37:59.867Z,99822.65
2023-01-19T16:40:30.901Z,99824.35
2023-01-19T16:43:01.983Z,99830.15
2023-01-19T16:45:33.452Z,99829.23
2023-01-19T16:48:04.521Z,99831.05
2023-01-19T16:50:35.636Z,99835.41
2023-01-19T16:53:09.660Z,99838.52
2023-01-19T16:55:56.571Z,99839.93
2023-01-19T16:58:27.899Z,99838.44
2023-01-19T17:09:27.374Z,99842.27
2023-01-19T17:12:01.281Z,99846.77
2023-01-19T17:14:39.279Z,99847.35
2023-01-19T17:17:28.498Z,99852.13
2023-01-19T17:20:00.925Z,99852.65
2023-01-19T17:22:58.736Z,99845.63
2023-01-19T17:25:36.479Z,99844.11
2023-01-19T17:28:08.298Z,99845.58
2023-01-19T17:30:41.085Z,99845.58
2023-01-19T17:33:13.884Z,99847.75
2023-01-19T17:35:47.202Z,99846.40
2023-01-19T18:02:56.042Z,99850.39
2023-01-19T18:09:28.075Z,99855.35
2023-01-19T18:11:59.304Z,99851.00
2023-01-19T18:14:30.540Z,99850.25
2023-01-19T18:17:03.256Z,99846.23
2023-01-19T18:19:35.998Z,99847.08
2023-01-19T18:22:06.975Z,99849.73
2023-01-19T18:24:37.933Z,99855.06
2023-01-19T18:27:08.780Z,99859.55
2023-01-19T18:29:39.780Z,99862.02
2023-01-19T18:32:10.623Z,99863.23
2023-01-19T18:34:41.682Z,99870.83
2023-01-19T18:37:12.576Z,99870.77
2023-01-19T18:39:46.744Z,99874.77
2023-01-19T18:42:18.221Z,99873.56
2023-01-19T18:44:49.236Z,99880.04
2023-01-19T18:47:20.023Z,99891.42
2023-01-19T18:49:51.786Z,99899.63
2023-01-19T18:52:22.623Z,99909.05
2023-01-19T18:54:54.099Z,99923.92
2023-01-19T18:57:25.011Z,99930.59
2023-01-19T18:59:55.877Z,99936.58
2023-01-19T19:02:26.710Z,99940.39
2023-01-19T19:04:57.710Z,99937.75
2023-01-19T19:07:28.932Z,99935.88
2023-01-19T19:09:59.766Z,99933.38
2023-01-19T19:12:30.961Z,99938.99
2023-01-19T19:15:01.995Z,99945.45
2023-01-19T19:17:32.727Z,99948.14
2023-01-19T19:20:03.828Z,99954.63
2023-01-19T19:22:34.942Z,99959.30
2023-01-19T19:25:06.137Z,99966.89
2023-01-19T19:27:37.091Z,99966.53
2023-01-19T19:30:08.836Z,99965.42
2023-01-19T19:32:39.702Z,99959.34
2023-01-19T19:35:12.730Z,99958.62
2023-01-19T19:37:45.961Z,99965.24
2023-01-19T19:40:17.066Z,99971.36
2023-01-19T19:42:47.913Z,99969.21
2023-01-19T19:45:19.663Z,99960.48
2023-01-19T19:47:51.145Z,99964.41
2023-01-19T19:50:22.329Z,99971.98
2023-01-19T19:52:53.148Z,99977.09
2023-01-19T19:55:24.061Z,99981.71
2023-01-19T19:57:55.471Z,99988.96
2023-01-19T20:00:26.768Z,99989.52
2023-01-19T20:02:57.549Z,99992.54
2023-01-19T20:05:52.723Z,99989.95
2023-01-19T20:08:24.115Z,99990.41
2023-01-19T20:10:56.005Z,99996.42
2023-01-19T20:13:26.848Z,99996.14
2023-01-19T20:15:58.309Z,99997.42
2023-01-19T20:18:29.226Z,100000.42
2023-01-19T20:21:00.693Z,100003.98
2023-01-19T20:23:31.737Z,100003.48
2023-01-19T20:26:05.083Z,100003.28
2023-01-19T20:28:35.813Z,100002.91
2023-01-19T20:31:11.240Z,99995.04
2023-01-19T20:33:42.181Z,100001.72
2023-01-19T20:36:13.741Z,100003.48
2023-01-19T20:38:44.673Z,99997.63
2023-01-19T20:41:18.686Z,99995.31
2023-01-19T20:43:49.593Z,100011.61
2023-01-19T20:46:20.630Z,100019.71
2023-01-19T20:48:53.739Z,100025.91
2023-01-19T20:51:25.968Z,100030.41
2023-01-19T20:53:56.771Z,100032.34
2023-01-19T20:56:28.330Z,100027.38
2023-01-19T20:58:59.158Z,100032.92
2023-01-19T21:01:30.001Z,100040.05
2023-01-19T21:04:01.283Z,100033.34
2023-01-19T21:06:32.336Z,100033.63
2023-01-19T21:09:03.317Z,100032.74
2023-01-19T21:11:34.543Z,100031.51
2023-01-19T21:14:05.489Z,100032.92
2023-01-19T21:16:37.593Z,100040.08
2023-01-19T21:19:08.963Z,100041.73
2023-01-19T21:21:40.851Z,100040.18
2023-01-19T21:24:11.778Z,100032.51
2023-01-19T21:26:42.965Z,100025.62
2023-01-19T21:29:14.308Z,100029.34
2023-01-19T21:31:45.117Z,100032.09
2023-01-19T21:34:15.934Z,100023.03
2023-01-19T21:36:46.774Z,100015.10
2023-01-19T21:39:17.584Z,100015.59
2023-01-19T21:41:48.581Z,100014.91
2023-01-19T21:44:19.363Z,100009.45
2023-01-19T21:46:50.239Z,100007.67
2023-01-19T21:49:21.351Z,100016.50
2023-01-19T21:51:52.205Z,100023.73
2023-01-19T21:54:23.027Z,100013.83
2023-01-19T21:56:53.899Z,100000.08
2023-01-19T21:59:24.626Z,100009.40
2023-01-19T22:01:55.764Z,100012.64
2023-01-19T22:04:26.600Z,100010.33
2023-01-19T22:06:58.309Z,100009.98
2023-01-19T22:09:29.091Z,100001.61
2023-01-19T22:12:00.042Z,99998.25
2023-01-19T22:14:30.948Z,100006.48
2023-01-19T22:17:01.763Z,100014.90
2023-01-19T22:19:32.599Z,100005.33
2023-01-19T22:22:03.408Z,100000.89
2023-01-19T22:24:34.170Z,100004.48
2023-01-19T22:27:05.088Z,100007.73
2023-01-19T22:29:35.872Z,99996.81
2023-01-19T22:32:07.087Z,99993.21
2023-01-19T22:34:38.092Z,100001.05
2023-01-19T22:37:08.866Z,100000.05
2023-01-19T22:39:39.761Z,99996.81
2023-01-19T22:42:10.617Z,99993.30
2023-01-19T22:44:41.532Z,99997.20
2023-01-19T22:47:12.268Z,100003.71
2023-01-19T22:49:42.892Z,100000.89
2023-01-19T22:52:13.755Z,99997.19
2023-01-19T22:54:44.561Z,99993.39
2023-01-19T22:57:15.451Z,99990.19
2023-01-19T22:59:46.244Z,99987.67
2023-01-19T23:02:20.773Z,99980.93
2023-01-19T23:04:52.045Z,99984.73
2023-01-19T23:07:23.049Z,99992.45
2023-01-19T23:09:53.847Z,99988.66
2023-01-19T23:12:24.461Z,99994.16
2023-01-19T23:14:55.199Z,100000.06
2023-01-19T23:17:26.088Z,99987.33
2023-01-19T23:19:56.787Z,99985.39
2023-01-19T23:22:27.582Z,99988.54
2023-01-19T23:24:58.475Z,99990.48
2023-01-19T23:27:29.278Z,99992.23
2023-01-19T23:30:00.077Z,99990.96
2023-01-19T23:32:30.838Z,99980.77
2023-01-19T23:35:01.525Z,99986.52
2023-01-19T23:37:32.436Z,99991.77
2023-01-19T23:40:03.194Z,99994.40
2023-01-19T23:42:33.989Z,99991.65
2023-01-19T23:45:04.900Z,99986.76
2023-01-19T23:47:36.598Z,99990.95
2023-01-19T23:50:08.091Z,99995.60
2023-01-19T23:52:38.927Z,99985.83
2023-01-19T23:55:10.763Z,99986.11
2023-01-19T23:57:41.624Z,99984.17
